Check out our new PWSWeather beta!
PWSweather.com
Personal Weather Stations
Station Observations
KNCGREEN1000
Bell Orchard Drive, Greensboro, NC 27455

Bell Orchard DriveGreensboro, NC 27455

Lat: 36.132, Lon: -79.8

Elevation: 876

Station Type: Acurite Atlas

Http://www.gilhutcheson.com

High Low Average
Temperature 50.7°F10.4°C 31.5°F-0.3°C 42.1°F5.6°C
Dew Point 38.6°F3.7°C 26.7°F-2.9°C 34.3°F1.3°C
Winds 9.0 mph 14.5 kmh Calm Calm 2.0 mph ESE3.2 kmh ESE
Wind Gusts -- -- --
Humidity 93% 60% 75%
Pressure 30.50 in1032.8 mb 30.23 in1023.7 mb -
Precipitation 0.00 in0.0 mm - -
Hour Temp Dew Point Humidity Winds Wind Gusts Pressure Precip Precip Rate Daily Precip Total
12:03 AM 46.3°F7.9°C 38.6°F3.7°C 75% 2.0 mph NNW3.2 kmh NNW -- 30.24 in1024.0 mb 0.00 in0.0 mm 0.00 in0.0 mm 0.00 in0.0 mm
12:09 AM 45.8°F7.7°C 38.6°F3.7°C 76% 1.0 mph E1.6 kmh E -- 30.24 in1024.0 mb 0.00 in0.0 mm 0.00 in0.0 mm 0.00 in0.0 mm
12:14 AM 45.5°F7.5°C 38.3°F3.5°C 76% 1.0 mph N1.6 kmh N -- 30.24 in1024.0 mb 0.00 in0.0 mm 0.00 in0.0 mm 0.00 in0.0 mm
12:18 AM 45.1°F7.3°C 38.3°F3.5°C 77% Calm Calm -- 30.24 in1024.0 mb 0.00 in0.0 mm 0.00 in0.0 mm 0.00 in0.0 mm
12:24 AM 44.7°F7.1°C 37.9°F3.3°C 77% 1.0 mph E1.6 kmh E -- 30.24 in1024.0 mb 0.00 in0.0 mm 0.00 in0.0 mm 0.00 in0.0 mm
12:29 AM 44.4°F6.9°C 38.2°F3.4°C 79% 2.0 mph NE3.2 kmh NE -- 30.23 in1023.7 mb 0.00 in0.0 mm 0.00 in0.0 mm 0.00 in0.0 mm
12:34 AM 44.0°F6.7°C 37.9°F3.3°C 79% 1.0 mph NW1.6 kmh NW -- 30.23 in1023.7 mb 0.00 in0.0 mm 0.00 in0.0 mm 0.00 in0.0 mm
12:38 AM 43.8°F6.6°C 38.0°F3.3°C 80% Calm Calm -- 30.23 in1023.7 mb 0.00 in0.0 mm 0.00 in0.0 mm 0.00 in0.0 mm
12:43 AM 43.5°F6.4°C 37.7°F3.2°C 80% Calm Calm -- 30.23 in1023.7 mb 0.00 in0.0 mm 0.00 in0.0 mm 0.00 in0.0 mm
12:49 AM 43.2°F6.2°C 37.3°F2.9°C 80% Calm Calm -- 30.23 in1023.7 mb 0.00 in0.0 mm 0.00 in0.0 mm 0.00 in0.0 mm
12:54 AM 43.0°F6.1°C 37.2°F2.9°C 80% Calm Calm -- 30.23 in1023.7 mb 0.00 in0.0 mm 0.00 in0.0 mm 0.00 in0.0 mm
12:58 AM 42.9°F6.1°C 37.2°F2.9°C 80% Calm Calm -- 30.23 in1023.7 mb 0.00 in0.0 mm 0.00 in0.0 mm 0.00 in0.0 mm
01:04 AM 42.8°F6.0°C 37.0°F2.8°C 80% 1.0 mph SE1.6 kmh SE -- 30.23 in1023.7 mb 0.00 in0.0 mm 0.00 in0.0 mm 0.00 in0.0 mm
01:08 AM 42.7°F5.9°C 37.1°F2.8°C 81% Calm Calm -- 30.23 in1023.7 mb 0.00 in0.0 mm 0.00 in0.0 mm 0.00 in0.0 mm
01:13 AM 42.6°F5.9°C 37.1°F2.8°C 81% Calm Calm -- 30.24 in1024.0 mb 0.00 in0.0 mm 0.00 in0.0 mm 0.00 in0.0 mm
01:18 AM 42.3°F5.7°C 36.8°F2.7°C 81% Calm Calm -- 30.24 in1024.0 mb 0.00 in0.0 mm 0.00 in0.0 mm 0.00 in0.0 mm
01:23 AM 42.1°F5.6°C 36.6°F2.6°C 81% Calm Calm -- 30.24 in1024.0 mb 0.00 in0.0 mm 0.00 in0.0 mm 0.00 in0.0 mm
01:29 AM 41.9°F5.5°C 36.4°F2.4°C 81% Calm Calm -- 30.24 in1024.0 mb 0.00 in0.0 mm 0.00 in0.0 mm 0.00 in0.0 mm
01:33 AM 41.8°F5.4°C 36.6°F2.6°C 82% Calm Calm -- 30.24 in1024.0 mb 0.00 in0.0 mm 0.00 in0.0 mm 0.00 in0.0 mm
01:38 AM 41.6°F5.3°C 36.4°F2.4°C 82% Calm Calm -- 30.24 in1024.0 mb 0.00 in0.0 mm 0.00 in0.0 mm 0.00 in0.0 mm
01:44 AM 41.4°F5.2°C 36.2°F2.3°C 82% Calm Calm -- 30.24 in1024.0 mb 0.00 in0.0 mm 0.00 in0.0 mm 0.00 in0.0 mm
01:48 AM 41.3°F5.2°C 36.2°F2.3°C 82% Calm Calm -- 30.24 in1024.0 mb 0.00 in0.0 mm 0.00 in0.0 mm 0.00 in0.0 mm
01:53 AM 41.2°F5.1°C 36.3°F2.4°C 83% 2.0 mph N3.2 kmh N -- 30.25 in1024.4 mb 0.00 in0.0 mm 0.00 in0.0 mm 0.00 in0.0 mm
01:58 AM 41.2°F5.1°C 36.3°F2.4°C 83% 1.0 mph ESE1.6 kmh ESE -- 30.25 in1024.4 mb 0.00 in0.0 mm 0.00 in0.0 mm 0.00 in0.0 mm
02:04 AM 41.0°F5.0°C 36.2°F2.3°C 83% 1.0 mph SE1.6 kmh SE -- 30.25 in1024.4 mb 0.00 in0.0 mm 0.00 in0.0 mm 0.00 in0.0 mm
02:09 AM 40.7°F4.8°C 35.8°F2.1°C 83% 1.0 mph WSW1.6 kmh WSW -- 30.25 in1024.4 mb 0.00 in0.0 mm 0.00 in0.0 mm 0.00 in0.0 mm
02:13 AM 40.6°F4.8°C 36.1°F2.3°C 84% Calm Calm -- 30.25 in1024.4 mb 0.00 in0.0 mm 0.00 in0.0 mm 0.00 in0.0 mm
02:18 AM 40.4°F4.7°C 35.9°F2.2°C 84% 1.0 mph N1.6 kmh N -- 30.26 in1024.7 mb 0.00 in0.0 mm 0.00 in0.0 mm 0.00 in0.0 mm
02:24 AM 40.6°F4.8°C 36.1°F2.3°C 84% 1.0 mph ESE1.6 kmh ESE -- 30.26 in1024.7 mb 0.00 in0.0 mm 0.00 in0.0 mm 0.00 in0.0 mm
02:29 AM 40.6°F4.8°C 36.1°F2.3°C 84% 2.0 mph NE3.2 kmh NE -- 30.26 in1024.7 mb 0.00 in0.0 mm 0.00 in0.0 mm 0.00 in0.0 mm
02:33 AM 40.8°F4.9°C 36.3°F2.4°C 84% 2.0 mph N3.2 kmh N -- 30.26 in1024.7 mb 0.00 in0.0 mm 0.00 in0.0 mm 0.00 in0.0 mm
02:38 AM 40.9°F4.9°C 36.3°F2.4°C 84% 1.0 mph S1.6 kmh S -- 30.26 in1024.7 mb 0.00 in0.0 mm 0.00 in0.0 mm 0.00 in0.0 mm
02:44 AM 40.9°F4.9°C 36.3°F2.4°C 84% 2.0 mph NE3.2 kmh NE -- 30.26 in1024.7 mb 0.00 in0.0 mm 0.00 in0.0 mm 0.00 in0.0 mm
02:49 AM 40.9°F4.9°C 36.0°F2.2°C 83% 1.0 mph SE1.6 kmh SE -- 30.26 in1024.7 mb 0.00 in0.0 mm 0.00 in0.0 mm 0.00 in0.0 mm
02:53 AM 40.6°F4.8°C 35.8°F2.1°C 83% 1.0 mph E1.6 kmh E -- 30.27 in1025.1 mb 0.00 in0.0 mm 0.00 in0.0 mm 0.00 in0.0 mm
02:58 AM 40.3°F4.6°C 35.8°F2.1°C 84% 2.0 mph NNE3.2 kmh NNE -- 30.27 in1025.1 mb 0.00 in0.0 mm 0.00 in0.0 mm 0.00 in0.0 mm
03:03 AM 39.9°F4.4°C 35.4°F1.9°C 84% 1.0 mph NNE1.6 kmh NNE -- 30.27 in1025.1 mb 0.00 in0.0 mm 0.00 in0.0 mm 0.00 in0.0 mm
03:09 AM 39.6°F4.2°C 35.1°F1.7°C 84% Calm Calm -- 30.27 in1025.1 mb 0.00 in0.0 mm 0.00 in0.0 mm 0.00 in0.0 mm
03:13 AM 39.4°F4.1°C 35.2°F1.8°C 85% Calm Calm -- 30.27 in1025.1 mb 0.00 in0.0 mm 0.00 in0.0 mm 0.00 in0.0 mm
03:18 AM 39.1°F3.9°C 34.8°F1.6°C 85% 1.0 mph SE1.6 kmh SE -- 30.27 in1025.1 mb 0.00 in0.0 mm 0.00 in0.0 mm 0.00 in0.0 mm
03:24 AM 39.0°F3.9°C 35.1°F1.7°C 86% 1.0 mph SSW1.6 kmh SSW -- 30.27 in1025.1 mb 0.00 in0.0 mm 0.00 in0.0 mm 0.00 in0.0 mm
03:28 AM 38.9°F3.8°C 35.3°F1.8°C 87% 3.0 mph N4.8 kmh N -- 30.27 in1025.1 mb 0.00 in0.0 mm 0.00 in0.0 mm 0.00 in0.0 mm
03:33 AM 38.9°F3.8°C 35.3°F1.8°C 87% 1.0 mph E1.6 kmh E -- 30.27 in1025.1 mb 0.00 in0.0 mm 0.00 in0.0 mm 0.00 in0.0 mm
03:39 AM 38.7°F3.7°C 34.8°F1.6°C 86% 2.0 mph ENE3.2 kmh ENE -- 30.27 in1025.1 mb 0.00 in0.0 mm 0.00 in0.0 mm 0.00 in0.0 mm
03:43 AM 38.5°F3.6°C 34.9°F1.6°C 87% 2.0 mph ENE3.2 kmh ENE -- 30.27 in1025.1 mb 0.00 in0.0 mm 0.00 in0.0 mm 0.00 in0.0 mm
03:48 AM 38.6°F3.7°C 35.1°F1.7°C 87% 2.0 mph NNE3.2 kmh NNE -- 30.26 in1024.7 mb 0.00 in0.0 mm 0.00 in0.0 mm 0.00 in0.0 mm
03:53 AM 38.4°F3.6°C 34.9°F1.6°C 87% 1.0 mph WSW1.6 kmh WSW -- 30.27 in1025.1 mb 0.00 in0.0 mm 0.00 in0.0 mm 0.00 in0.0 mm
03:59 AM 38.4°F3.6°C 34.9°F1.6°C 87% Calm Calm -- 30.27 in1025.1 mb 0.00 in0.0 mm 0.00 in0.0 mm 0.00 in0.0 mm
04:04 AM 38.2°F3.4°C 34.8°F1.6°C 88% 1.0 mph ESE1.6 kmh ESE -- 30.27 in1025.1 mb 0.00 in0.0 mm 0.00 in0.0 mm 0.00 in0.0 mm
04:08 AM 38.2°F3.4°C 34.8°F1.6°C 88% Calm Calm -- 30.27 in1025.1 mb 0.00 in0.0 mm 0.00 in0.0 mm 0.00 in0.0 mm
04:13 AM 38.1°F3.4°C 34.8°F1.6°C 88% Calm Calm -- 30.27 in1025.1 mb 0.00 in0.0 mm 0.00 in0.0 mm 0.00 in0.0 mm
04:19 AM 38.0°F3.3°C 34.7°F1.5°C 88% Calm Calm -- 30.27 in1025.1 mb 0.00 in0.0 mm 0.00 in0.0 mm 0.00 in0.0 mm
04:24 AM 37.9°F3.3°C 34.7°F1.5°C 88% 1.0 mph S1.6 kmh S -- 30.28 in1025.4 mb 0.00 in0.0 mm 0.00 in0.0 mm 0.00 in0.0 mm
04:28 AM 37.9°F3.3°C 34.7°F1.5°C 88% Calm Calm -- 30.28 in1025.4 mb 0.00 in0.0 mm 0.00 in0.0 mm 0.00 in0.0 mm
04:33 AM 37.9°F3.3°C 34.7°F1.5°C 88% Calm Calm -- 30.28 in1025.4 mb 0.00 in0.0 mm 0.00 in0.0 mm 0.00 in0.0 mm
04:39 AM 37.8°F3.2°C 34.5°F1.4°C 88% Calm Calm -- 30.28 in1025.4 mb 0.00 in0.0 mm 0.00 in0.0 mm 0.00 in0.0 mm
04:44 AM 37.9°F3.3°C 34.7°F1.5°C 88% Calm Calm -- 30.28 in1025.4 mb 0.00 in0.0 mm 0.00 in0.0 mm 0.00 in0.0 mm
04:48 AM 37.9°F3.3°C 34.7°F1.5°C 88% Calm Calm -- 30.28 in1025.4 mb 0.00 in0.0 mm 0.00 in0.0 mm 0.00 in0.0 mm
04:53 AM 37.8°F3.2°C 34.5°F1.4°C 88% Calm Calm -- 30.28 in1025.4 mb 0.00 in0.0 mm 0.00 in0.0 mm 0.00 in0.0 mm
04:58 AM 37.7°F3.2°C 34.8°F1.6°C 89% Calm Calm -- 30.28 in1025.4 mb 0.00 in0.0 mm 0.00 in0.0 mm 0.00 in0.0 mm
05:04 AM 37.6°F3.1°C 34.6°F1.4°C 89% 1.0 mph ESE1.6 kmh ESE -- 30.28 in1025.4 mb 0.00 in0.0 mm 0.00 in0.0 mm 0.00 in0.0 mm
05:08 AM 37.6°F3.1°C 34.3°F1.3°C 88% 2.0 mph NE3.2 kmh NE -- 30.28 in1025.4 mb 0.00 in0.0 mm 0.00 in0.0 mm 0.00 in0.0 mm
05:13 AM 37.4°F3.0°C 34.1°F1.2°C 88% Calm Calm -- 30.28 in1025.4 mb 0.00 in0.0 mm 0.00 in0.0 mm 0.00 in0.0 mm
05:19 AM 37.2°F2.9°C 33.9°F1.1°C 88% Calm Calm -- 30.28 in1025.4 mb 0.00 in0.0 mm 0.00 in0.0 mm 0.00 in0.0 mm
05:23 AM 37.0°F2.8°C 33.8°F1.0°C 88% Calm Calm -- 30.29 in1025.7 mb 0.00 in0.0 mm 0.00 in0.0 mm 0.00 in0.0 mm
05:28 AM 36.9°F2.7°C 33.9°F1.1°C 89% 1.0 mph ESE1.6 kmh ESE -- 30.29 in1025.7 mb 0.00 in0.0 mm 0.00 in0.0 mm 0.00 in0.0 mm
05:34 AM 36.7°F2.6°C 33.7°F0.9°C 89% 1.0 mph SSE1.6 kmh SSE -- 30.29 in1025.7 mb 0.00 in0.0 mm 0.00 in0.0 mm 0.00 in0.0 mm
05:38 AM 36.6°F2.6°C 33.7°F0.9°C 89% 1.0 mph N1.6 kmh N -- 30.29 in1025.7 mb 0.00 in0.0 mm 0.00 in0.0 mm 0.00 in0.0 mm
05:43 AM 36.6°F2.6°C 34.0°F1.1°C 90% Calm Calm -- 30.29 in1025.7 mb 0.00 in0.0 mm 0.00 in0.0 mm 0.00 in0.0 mm
05:48 AM 36.6°F2.6°C 34.0°F1.1°C 90% Calm Calm -- 30.29 in1025.7 mb 0.00 in0.0 mm 0.00 in0.0 mm 0.00 in0.0 mm
05:53 AM 36.5°F2.5°C 33.8°F1.0°C 90% Calm Calm -- 30.29 in1025.7 mb 0.00 in0.0 mm 0.00 in0.0 mm 0.00 in0.0 mm
06:03 AM 36.4°F2.4°C 33.6°F0.9°C 90% Calm Calm -- 30.30 in1026.1 mb 0.00 in0.0 mm 0.00 in0.0 mm 0.00 in0.0 mm
06:08 AM 36.6°F2.6°C 34.3°F1.3°C 91% Calm Calm -- 30.30 in1026.1 mb 0.00 in0.0 mm 0.00 in0.0 mm 0.00 in0.0 mm
06:14 AM 36.8°F2.7°C 34.4°F1.3°C 91% Calm Calm -- 30.30 in1026.1 mb 0.00 in0.0 mm 0.00 in0.0 mm 0.00 in0.0 mm
06:18 AM 36.9°F2.7°C 34.4°F1.3°C 91% Calm Calm -- 30.30 in1026.1 mb 0.00 in0.0 mm 0.00 in0.0 mm 0.00 in0.0 mm
06:23 AM 36.9°F2.7°C 34.4°F1.3°C 91% Calm Calm -- 30.31 in1026.4 mb 0.00 in0.0 mm 0.00 in0.0 mm 0.00 in0.0 mm
06:28 AM 37.0°F2.8°C 34.6°F1.4°C 91% Calm Calm -- 30.31 in1026.4 mb 0.00 in0.0 mm 0.00 in0.0 mm 0.00 in0.0 mm
06:33 AM 37.0°F2.8°C 34.6°F1.4°C 91% Calm Calm -- 30.31 in1026.4 mb 0.00 in0.0 mm 0.00 in0.0 mm 0.00 in0.0 mm
06:39 AM 36.9°F2.7°C 34.2°F1.2°C 90% Calm Calm -- 30.32 in1026.8 mb 0.00 in0.0 mm 0.00 in0.0 mm 0.00 in0.0 mm
06:43 AM 37.1°F2.8°C 34.3°F1.3°C 90% Calm Calm -- 30.32 in1026.8 mb 0.00 in0.0 mm 0.00 in0.0 mm 0.00 in0.0 mm
06:48 AM 36.8°F2.7°C 34.2°F1.2°C 90% Calm Calm -- 30.32 in1026.8 mb 0.00 in0.0 mm 0.00 in0.0 mm 0.00 in0.0 mm
06:54 AM 36.8°F2.7°C 34.2°F1.2°C 90% Calm Calm -- 30.32 in1026.8 mb 0.00 in0.0 mm 0.00 in0.0 mm 0.00 in0.0 mm
06:58 AM 36.6°F2.6°C 34.0°F1.1°C 90% Calm Calm -- 30.32 in1026.8 mb 0.00 in0.0 mm 0.00 in0.0 mm 0.00 in0.0 mm
07:03 AM 36.4°F2.4°C 33.6°F0.9°C 90% Calm Calm -- 30.32 in1026.8 mb 0.00 in0.0 mm 0.00 in0.0 mm 0.00 in0.0 mm
07:09 AM 36.3°F2.4°C 33.6°F0.9°C 90% Calm Calm -- 30.33 in1027.1 mb 0.00 in0.0 mm 0.00 in0.0 mm 0.00 in0.0 mm
07:14 AM 36.1°F2.3°C 33.5°F0.8°C 90% Calm Calm -- 30.33 in1027.1 mb 0.00 in0.0 mm 0.00 in0.0 mm 0.00 in0.0 mm
07:18 AM 35.9°F2.2°C 33.3°F0.7°C 90% 1.0 mph N1.6 kmh N -- 30.33 in1027.1 mb 0.00 in0.0 mm 0.00 in0.0 mm 0.00 in0.0 mm
07:23 AM 35.9°F2.2°C 33.6°F0.9°C 91% Calm Calm -- 30.33 in1027.1 mb 0.00 in0.0 mm 0.00 in0.0 mm 0.00 in0.0 mm
07:29 AM 35.8°F2.1°C 33.4°F0.8°C 91% 1.0 mph NE1.6 kmh NE -- 30.33 in1027.1 mb 0.00 in0.0 mm 0.00 in0.0 mm 0.00 in0.0 mm
07:34 AM 35.6°F2.0°C 33.2°F0.7°C 91% 1.0 mph WNW1.6 kmh WNW -- 30.34 in1027.4 mb 0.00 in0.0 mm 0.00 in0.0 mm 0.00 in0.0 mm
07:38 AM 35.5°F1.9°C 33.0°F0.6°C 91% 1.0 mph SE1.6 kmh SE -- 30.34 in1027.4 mb 0.00 in0.0 mm 0.00 in0.0 mm 0.00 in0.0 mm
07:43 AM 35.4°F1.9°C 33.0°F0.6°C 91% 1.0 mph E1.6 kmh E -- 30.34 in1027.4 mb 0.00 in0.0 mm 0.00 in0.0 mm 0.00 in0.0 mm
07:48 AM 35.9°F2.2°C 34.1°F1.2°C 93% 4.0 mph NE6.4 kmh NE -- 30.35 in1027.8 mb 0.00 in0.0 mm 0.00 in0.0 mm 0.00 in0.0 mm
07:54 AM 37.8°F3.2°C 35.6°F2.0°C 92% 3.0 mph NE4.8 kmh NE -- 30.36 in1028.1 mb 0.00 in0.0 mm 0.00 in0.0 mm 0.00 in0.0 mm
07:58 AM 38.6°F3.7°C 35.9°F2.2°C 90% 3.0 mph NE4.8 kmh NE -- 30.36 in1028.1 mb 0.00 in0.0 mm 0.00 in0.0 mm 0.00 in0.0 mm
08:03 AM 39.3°F4.1°C 36.4°F2.4°C 89% 2.0 mph NE3.2 kmh NE -- 30.36 in1028.1 mb 0.00 in0.0 mm 0.00 in0.0 mm 0.00 in0.0 mm
08:09 AM 39.6°F4.2°C 36.5°F2.5°C 89% 3.0 mph NNE4.8 kmh NNE -- 30.36 in1028.1 mb 0.00 in0.0 mm 0.00 in0.0 mm 0.00 in0.0 mm
08:13 AM 40.1°F4.5°C 36.8°F2.7°C 88% 2.0 mph SE3.2 kmh SE -- 30.37 in1028.4 mb 0.00 in0.0 mm 0.00 in0.0 mm 0.00 in0.0 mm
08:18 AM 40.3°F4.6°C 37.0°F2.8°C 88% 4.0 mph N6.4 kmh N -- 30.37 in1028.4 mb 0.00 in0.0 mm 0.00 in0.0 mm 0.00 in0.0 mm
08:23 AM 40.7°F4.8°C 37.0°F2.8°C 87% 5.0 mph NNE8.0 kmh NNE -- 30.37 in1028.4 mb 0.00 in0.0 mm 0.00 in0.0 mm 0.00 in0.0 mm
08:28 AM 41.0°F5.0°C 36.8°F2.7°C 85% 2.0 mph E3.2 kmh E -- 30.37 in1028.4 mb 0.00 in0.0 mm 0.00 in0.0 mm 0.00 in0.0 mm
08:34 AM 41.0°F5.0°C 36.8°F2.7°C 85% 3.0 mph NE4.8 kmh NE -- 30.38 in1028.8 mb 0.00 in0.0 mm 0.00 in0.0 mm 0.00 in0.0 mm
08:38 AM 41.2°F5.1°C 36.7°F2.6°C 84% 4.0 mph ESE6.4 kmh ESE -- 30.38 in1028.8 mb 0.00 in0.0 mm 0.00 in0.0 mm 0.00 in0.0 mm
08:44 AM 41.3°F5.2°C 36.8°F2.7°C 84% 4.0 mph NE6.4 kmh NE -- 30.38 in1028.8 mb 0.00 in0.0 mm 0.00 in0.0 mm 0.00 in0.0 mm
08:49 AM 41.3°F5.2°C 36.5°F2.5°C 83% 3.0 mph NNE4.8 kmh NNE -- 30.38 in1028.8 mb 0.00 in0.0 mm 0.00 in0.0 mm 0.00 in0.0 mm
08:53 AM 41.6°F5.3°C 36.7°F2.6°C 83% 2.0 mph SE3.2 kmh SE -- 30.38 in1028.8 mb 0.00 in0.0 mm 0.00 in0.0 mm 0.00 in0.0 mm
08:58 AM 41.8°F5.4°C 36.6°F2.6°C 82% 3.0 mph ENE4.8 kmh ENE -- 30.39 in1029.1 mb 0.00 in0.0 mm 0.00 in0.0 mm 0.00 in0.0 mm
09:04 AM 41.9°F5.5°C 36.7°F2.6°C 82% 2.0 mph E3.2 kmh E -- 30.39 in1029.1 mb 0.00 in0.0 mm 0.00 in0.0 mm 0.00 in0.0 mm
09:09 AM 42.1°F5.6°C 36.6°F2.6°C 81% 3.0 mph NNE4.8 kmh NNE -- 30.39 in1029.1 mb 0.00 in0.0 mm 0.00 in0.0 mm 0.00 in0.0 mm
09:13 AM 42.3°F5.7°C 36.5°F2.5°C 80% 4.0 mph NE6.4 kmh NE -- 30.39 in1029.1 mb 0.00 in0.0 mm 0.00 in0.0 mm 0.00 in0.0 mm
09:18 AM 42.4°F5.8°C 36.6°F2.6°C 80% 5.0 mph ESE8.0 kmh ESE -- 30.39 in1029.1 mb 0.00 in0.0 mm 0.00 in0.0 mm 0.00 in0.0 mm
09:24 AM 42.7°F5.9°C 36.8°F2.7°C 80% 3.0 mph NE4.8 kmh NE -- 30.40 in1029.5 mb 0.00 in0.0 mm 0.00 in0.0 mm 0.00 in0.0 mm
09:29 AM 42.9°F6.1°C 36.5°F2.5°C 78% 9.0 mph ESE14.5 kmh ESE -- 30.40 in1029.5 mb 0.00 in0.0 mm 0.00 in0.0 mm 0.00 in0.0 mm
09:33 AM 43.4°F6.3°C 36.9°F2.7°C 78% 2.0 mph E3.2 kmh E -- 30.40 in1029.5 mb 0.00 in0.0 mm 0.00 in0.0 mm 0.00 in0.0 mm
09:38 AM 43.8°F6.6°C 37.1°F2.8°C 77% 3.0 mph SE4.8 kmh SE -- 30.40 in1029.5 mb 0.00 in0.0 mm 0.00 in0.0 mm 0.00 in0.0 mm
09:43 AM 44.0°F6.7°C 36.9°F2.7°C 76% 3.0 mph N4.8 kmh N -- 30.40 in1029.5 mb 0.00 in0.0 mm 0.00 in0.0 mm 0.00 in0.0 mm
09:49 AM 44.2°F6.8°C 36.7°F2.6°C 75% 2.0 mph E3.2 kmh E -- 30.41 in1029.8 mb 0.00 in0.0 mm 0.00 in0.0 mm 0.00 in0.0 mm
09:53 AM 44.5°F6.9°C 36.9°F2.7°C 75% 5.0 mph NE8.0 kmh NE -- 30.41 in1029.8 mb 0.00 in0.0 mm 0.00 in0.0 mm 0.00 in0.0 mm
09:58 AM 44.5°F6.9°C 36.6°F2.6°C 74% 4.0 mph NE6.4 kmh NE -- 30.41 in1029.8 mb 0.00 in0.0 mm 0.00 in0.0 mm 0.00 in0.0 mm
10:04 AM 44.8°F7.1°C 36.6°F2.6°C 73% 4.0 mph NNE6.4 kmh NNE -- 30.41 in1029.8 mb 0.00 in0.0 mm 0.00 in0.0 mm 0.00 in0.0 mm
10:08 AM 45.1°F7.3°C 36.9°F2.7°C 73% 3.0 mph NE4.8 kmh NE -- 30.41 in1029.8 mb 0.00 in0.0 mm 0.00 in0.0 mm 0.00 in0.0 mm
10:13 AM 45.2°F7.3°C 36.9°F2.7°C 73% 2.0 mph ESE3.2 kmh ESE -- 30.41 in1029.8 mb 0.00 in0.0 mm 0.00 in0.0 mm 0.00 in0.0 mm
10:18 AM 45.5°F7.5°C 36.9°F2.7°C 72% 3.0 mph NE4.8 kmh NE -- 30.41 in1029.8 mb 0.00 in0.0 mm 0.00 in0.0 mm 0.00 in0.0 mm
10:23 AM 45.6°F7.6°C 37.1°F2.8°C 72% 8.0 mph NNE12.9 kmh NNE -- 30.41 in1029.8 mb 0.00 in0.0 mm 0.00 in0.0 mm 0.00 in0.0 mm
10:29 AM 45.3°F7.4°C 37.1°F2.8°C 73% 4.0 mph NNE6.4 kmh NNE -- 30.41 in1029.8 mb 0.00 in0.0 mm 0.00 in0.0 mm 0.00 in0.0 mm
10:33 AM 45.8°F7.7°C 36.9°F2.7°C 71% 6.0 mph NNE9.7 kmh NNE -- 30.41 in1029.8 mb 0.00 in0.0 mm 0.00 in0.0 mm 0.00 in0.0 mm
10:39 AM 45.9°F7.7°C 37.2°F2.9°C 72% 3.0 mph NE4.8 kmh NE -- 30.41 in1029.8 mb 0.00 in0.0 mm 0.00 in0.0 mm 0.00 in0.0 mm
10:44 AM 46.4°F8.0°C 37.0°F2.8°C 70% 2.0 mph E3.2 kmh E -- 30.42 in1030.1 mb 0.00 in0.0 mm 0.00 in0.0 mm 0.00 in0.0 mm
10:48 AM 46.7°F8.2°C 37.0°F2.8°C 69% 5.0 mph ESE8.0 kmh ESE -- 30.42 in1030.1 mb 0.00 in0.0 mm 0.00 in0.0 mm 0.00 in0.0 mm
10:53 AM 46.7°F8.2°C 37.0°F2.8°C 69% 3.0 mph ESE4.8 kmh ESE -- 30.42 in1030.1 mb 0.00 in0.0 mm 0.00 in0.0 mm 0.00 in0.0 mm
10:59 AM 46.4°F8.0°C 36.3°F2.4°C 68% 8.0 mph SSE12.9 kmh SSE -- 30.42 in1030.1 mb 0.00 in0.0 mm 0.00 in0.0 mm 0.00 in0.0 mm
11:04 AM 46.8°F8.2°C 36.6°F2.6°C 68% 6.0 mph SSW9.7 kmh SSW -- 30.42 in1030.1 mb 0.00 in0.0 mm 0.00 in0.0 mm 0.00 in0.0 mm
11:08 AM 46.8°F8.2°C 37.0°F2.8°C 69% 3.0 mph SE4.8 kmh SE -- 30.42 in1030.1 mb 0.00 in0.0 mm 0.00 in0.0 mm 0.00 in0.0 mm
11:13 AM 47.1°F8.4°C 36.6°F2.6°C 67% 2.0 mph NNW3.2 kmh NNW -- 30.42 in1030.1 mb 0.00 in0.0 mm 0.00 in0.0 mm 0.00 in0.0 mm
11:19 AM 47.3°F8.5°C 36.8°F2.7°C 67% 6.0 mph E9.7 kmh E -- 30.42 in1030.1 mb 0.00 in0.0 mm 0.00 in0.0 mm 0.00 in0.0 mm
11:24 AM 47.4°F8.6°C 37.0°F2.8°C 67% 4.0 mph E6.4 kmh E -- 30.42 in1030.1 mb 0.00 in0.0 mm 0.00 in0.0 mm 0.00 in0.0 mm
11:28 AM 47.3°F8.5°C 36.8°F2.7°C 67% 3.0 mph E4.8 kmh E -- 30.42 in1030.1 mb 0.00 in0.0 mm 0.00 in0.0 mm 0.00 in0.0 mm
11:33 AM 47.7°F8.7°C 37.1°F2.8°C 67% 3.0 mph S4.8 kmh S -- 30.42 in1030.1 mb 0.00 in0.0 mm 0.00 in0.0 mm 0.00 in0.0 mm
11:38 AM 47.5°F8.6°C 36.6°F2.6°C 66% 5.0 mph ENE8.0 kmh ENE -- 30.41 in1029.8 mb 0.00 in0.0 mm 0.00 in0.0 mm 0.00 in0.0 mm
11:44 AM 48.5°F9.2°C 36.8°F2.7°C 64% 3.0 mph NE4.8 kmh NE -- 30.41 in1029.8 mb 0.00 in0.0 mm 0.00 in0.0 mm 0.00 in0.0 mm
11:48 AM 48.6°F9.2°C 37.2°F2.9°C 65% 6.0 mph NNE9.7 kmh NNE -- 30.41 in1029.8 mb 0.00 in0.0 mm 0.00 in0.0 mm 0.00 in0.0 mm
11:53 AM 48.3°F9.1°C 37.0°F2.8°C 65% 4.0 mph NNE6.4 kmh NNE -- 30.41 in1029.8 mb 0.00 in0.0 mm 0.00 in0.0 mm 0.00 in0.0 mm
11:59 AM 48.9°F9.4°C 36.8°F2.7°C 63% 8.0 mph NE12.9 kmh NE -- 30.41 in1029.8 mb 0.00 in0.0 mm 0.00 in0.0 mm 0.00 in0.0 mm
12:03 PM 48.7°F9.3°C 37.0°F2.8°C 64% 3.0 mph SE4.8 kmh SE -- 30.41 in1029.8 mb 0.00 in0.0 mm 0.00 in0.0 mm 0.00 in0.0 mm
12:08 PM 49.9°F9.9°C 37.6°F3.1°C 63% 4.0 mph SE6.4 kmh SE -- 30.41 in1029.8 mb 0.00 in0.0 mm 0.00 in0.0 mm 0.00 in0.0 mm
12:13 PM 49.5°F9.7°C 37.3°F2.9°C 63% 5.0 mph E8.0 kmh E -- 30.41 in1029.8 mb 0.00 in0.0 mm 0.00 in0.0 mm 0.00 in0.0 mm
12:18 PM 48.7°F9.3°C 37.0°F2.8°C 64% 4.0 mph NE6.4 kmh NE -- 30.41 in1029.8 mb 0.00 in0.0 mm 0.00 in0.0 mm 0.00 in0.0 mm
12:24 PM 49.4°F9.7°C 37.3°F2.9°C 63% 6.0 mph NNE9.7 kmh NNE -- 30.40 in1029.5 mb 0.00 in0.0 mm 0.00 in0.0 mm 0.00 in0.0 mm
12:28 PM 49.3°F9.6°C 37.1°F2.8°C 63% 4.0 mph ENE6.4 kmh ENE -- 30.40 in1029.5 mb 0.00 in0.0 mm 0.00 in0.0 mm 0.00 in0.0 mm
12:33 PM 49.6°F9.8°C 37.4°F3.0°C 63% 3.0 mph E4.8 kmh E -- 30.40 in1029.5 mb 0.00 in0.0 mm 0.00 in0.0 mm 0.00 in0.0 mm
12:39 PM 49.9°F9.9°C 37.2°F2.9°C 62% 4.0 mph N6.4 kmh N -- 30.40 in1029.5 mb 0.00 in0.0 mm 0.00 in0.0 mm 0.00 in0.0 mm
12:43 PM 49.1°F9.5°C 36.9°F2.7°C 63% 5.0 mph N8.0 kmh N -- 30.40 in1029.5 mb 0.00 in0.0 mm 0.00 in0.0 mm 0.00 in0.0 mm
12:48 PM 50.4°F10.2°C 37.3°F2.9°C 61% 5.0 mph E8.0 kmh E -- 30.39 in1029.1 mb 0.00 in0.0 mm 0.00 in0.0 mm 0.00 in0.0 mm
12:53 PM 49.9°F9.9°C 36.8°F2.7°C 61% 5.0 mph E8.0 kmh E -- 30.39 in1029.1 mb 0.00 in0.0 mm 0.00 in0.0 mm 0.00 in0.0 mm
12:59 PM 50.4°F10.2°C 37.7°F3.2°C 62% 3.0 mph NE4.8 kmh NE -- 30.39 in1029.1 mb 0.00 in0.0 mm 0.00 in0.0 mm 0.00 in0.0 mm
01:04 PM 49.3°F9.6°C 37.1°F2.8°C 63% 5.0 mph N8.0 kmh N -- 30.39 in1029.1 mb 0.00 in0.0 mm 0.00 in0.0 mm 0.00 in0.0 mm
01:08 PM 49.4°F9.7°C 37.3°F2.9°C 63% 1.0 mph SE1.6 kmh SE -- 30.39 in1029.1 mb 0.00 in0.0 mm 0.00 in0.0 mm 0.00 in0.0 mm
01:13 PM 50.3°F10.2°C 37.7°F3.2°C 62% 3.0 mph ESE4.8 kmh ESE -- 30.39 in1029.1 mb 0.00 in0.0 mm 0.00 in0.0 mm 0.00 in0.0 mm
01:19 PM 50.6°F10.3°C 37.5°F3.1°C 61% 5.0 mph NNE8.0 kmh NNE -- 30.39 in1029.1 mb 0.00 in0.0 mm 0.00 in0.0 mm 0.00 in0.0 mm
01:24 PM 50.7°F10.4°C 38.0°F3.3°C 62% 3.0 mph SE4.8 kmh SE -- 30.39 in1029.1 mb 0.00 in0.0 mm 0.00 in0.0 mm 0.00 in0.0 mm
01:28 PM 50.0°F10.0°C 37.4°F3.0°C 62% 3.0 mph SE4.8 kmh SE -- 30.39 in1029.1 mb 0.00 in0.0 mm 0.00 in0.0 mm 0.00 in0.0 mm
01:33 PM 49.5°F9.7°C 36.9°F2.7°C 62% 2.0 mph ESE3.2 kmh ESE -- 30.39 in1029.1 mb 0.00 in0.0 mm 0.00 in0.0 mm 0.00 in0.0 mm
01:39 PM 50.3°F10.2°C 37.7°F3.2°C 62% 2.0 mph ESE3.2 kmh ESE -- 30.39 in1029.1 mb 0.00 in0.0 mm 0.00 in0.0 mm 0.00 in0.0 mm
01:43 PM 50.2°F10.1°C 37.1°F2.8°C 61% 2.0 mph ENE3.2 kmh ENE -- 30.39 in1029.1 mb 0.00 in0.0 mm 0.00 in0.0 mm 0.00 in0.0 mm
01:48 PM 50.2°F10.1°C 36.7°F2.6°C 60% 2.0 mph NE3.2 kmh NE -- 30.39 in1029.1 mb 0.00 in0.0 mm 0.00 in0.0 mm 0.00 in0.0 mm
01:54 PM 50.1°F10.1°C 37.1°F2.8°C 61% 3.0 mph NNE4.8 kmh NNE -- 30.39 in1029.1 mb 0.00 in0.0 mm 0.00 in0.0 mm 0.00 in0.0 mm
01:58 PM 50.4°F10.2°C 37.3°F2.9°C 61% 2.0 mph NE3.2 kmh NE -- 30.39 in1029.1 mb 0.00 in0.0 mm 0.00 in0.0 mm 0.00 in0.0 mm
02:03 PM 49.9°F9.9°C 36.8°F2.7°C 61% 3.0 mph SE4.8 kmh SE -- 30.38 in1028.8 mb 0.00 in0.0 mm 0.00 in0.0 mm 0.00 in0.0 mm
02:08 PM 50.2°F10.1°C 36.7°F2.6°C 60% 3.0 mph ESE4.8 kmh ESE -- 30.39 in1029.1 mb 0.00 in0.0 mm 0.00 in0.0 mm 0.00 in0.0 mm
02:13 PM 50.1°F10.1°C 37.1°F2.8°C 61% 2.0 mph SE3.2 kmh SE -- 30.39 in1029.1 mb 0.00 in0.0 mm 0.00 in0.0 mm 0.00 in0.0 mm
02:19 PM 50.4°F10.2°C 36.9°F2.7°C 60% 3.0 mph E4.8 kmh E -- 30.39 in1029.1 mb 0.00 in0.0 mm 0.00 in0.0 mm 0.00 in0.0 mm
02:23 PM 50.3°F10.2°C 36.9°F2.7°C 60% 2.0 mph S3.2 kmh S -- 30.39 in1029.1 mb 0.00 in0.0 mm 0.00 in0.0 mm 0.00 in0.0 mm
02:28 PM 50.3°F10.2°C 36.9°F2.7°C 60% 6.0 mph NNE9.7 kmh NNE -- 30.39 in1029.1 mb 0.00 in0.0 mm 0.00 in0.0 mm 0.00 in0.0 mm
02:34 PM 50.2°F10.1°C 36.7°F2.6°C 60% 3.0 mph SE4.8 kmh SE -- 30.39 in1029.1 mb 0.00 in0.0 mm 0.00 in0.0 mm 0.00 in0.0 mm
02:38 PM 50.3°F10.2°C 36.9°F2.7°C 60% 2.0 mph E3.2 kmh E -- 30.39 in1029.1 mb 0.00 in0.0 mm 0.00 in0.0 mm 0.00 in0.0 mm
02:43 PM 50.3°F10.2°C 36.9°F2.7°C 60% 3.0 mph SE4.8 kmh SE -- 30.39 in1029.1 mb 0.00 in0.0 mm 0.00 in0.0 mm 0.00 in0.0 mm
02:48 PM 50.2°F10.1°C 36.7°F2.6°C 60% 2.0 mph S3.2 kmh S -- 30.39 in1029.1 mb 0.00 in0.0 mm 0.00 in0.0 mm 0.00 in0.0 mm
02:54 PM 50.0°F10.0°C 36.5°F2.5°C 60% 5.0 mph E8.0 kmh E -- 30.39 in1029.1 mb 0.00 in0.0 mm 0.00 in0.0 mm 0.00 in0.0 mm
02:59 PM 50.1°F10.1°C 36.7°F2.6°C 60% 4.0 mph ENE6.4 kmh ENE -- 30.39 in1029.1 mb 0.00 in0.0 mm 0.00 in0.0 mm 0.00 in0.0 mm
03:03 PM 49.9°F9.9°C 36.4°F2.4°C 60% 3.0 mph NNE4.8 kmh NNE -- 30.39 in1029.1 mb 0.00 in0.0 mm 0.00 in0.0 mm 0.00 in0.0 mm
03:08 PM 49.9°F9.9°C 36.8°F2.7°C 61% 1.0 mph SE1.6 kmh SE -- 30.39 in1029.1 mb 0.00 in0.0 mm 0.00 in0.0 mm 0.00 in0.0 mm
03:14 PM 49.9°F9.9°C 36.4°F2.4°C 60% 3.0 mph NE4.8 kmh NE -- 30.39 in1029.1 mb 0.00 in0.0 mm 0.00 in0.0 mm 0.00 in0.0 mm
03:19 PM 49.7°F9.8°C 36.2°F2.3°C 60% 2.0 mph SE3.2 kmh SE -- 30.40 in1029.5 mb 0.00 in0.0 mm 0.00 in0.0 mm 0.00 in0.0 mm
03:23 PM 49.7°F9.8°C 36.6°F2.6°C 61% 2.0 mph SE3.2 kmh SE -- 30.40 in1029.5 mb 0.00 in0.0 mm 0.00 in0.0 mm 0.00 in0.0 mm
03:28 PM 49.9°F9.9°C 36.4°F2.4°C 60% 3.0 mph NE4.8 kmh NE -- 30.40 in1029.5 mb 0.00 in0.0 mm 0.00 in0.0 mm 0.00 in0.0 mm
03:34 PM 49.7°F9.8°C 36.2°F2.3°C 60% 2.0 mph SE3.2 kmh SE -- 30.40 in1029.5 mb 0.00 in0.0 mm 0.00 in0.0 mm 0.00 in0.0 mm
03:39 PM 49.8°F9.9°C 36.4°F2.4°C 60% 2.0 mph E3.2 kmh E -- 30.40 in1029.5 mb 0.00 in0.0 mm 0.00 in0.0 mm 0.00 in0.0 mm
03:43 PM 49.5°F9.7°C 36.9°F2.7°C 62% 1.0 mph S1.6 kmh S -- 30.40 in1029.5 mb 0.00 in0.0 mm 0.00 in0.0 mm 0.00 in0.0 mm
03:49 PM 49.4°F9.7°C 36.4°F2.4°C 61% 3.0 mph E4.8 kmh E -- 30.40 in1029.5 mb 0.00 in0.0 mm 0.00 in0.0 mm 0.00 in0.0 mm
03:54 PM 49.2°F9.6°C 36.3°F2.4°C 61% 4.0 mph NE6.4 kmh NE -- 30.40 in1029.5 mb 0.00 in0.0 mm 0.00 in0.0 mm 0.00 in0.0 mm
03:58 PM 48.9°F9.4°C 35.9°F2.2°C 61% 2.0 mph SSE3.2 kmh SSE -- 30.40 in1029.5 mb 0.00 in0.0 mm 0.00 in0.0 mm 0.00 in0.0 mm
04:03 PM 48.7°F9.3°C 36.2°F2.3°C 62% 2.0 mph NE3.2 kmh NE -- 30.40 in1029.5 mb 0.00 in0.0 mm 0.00 in0.0 mm 0.00 in0.0 mm
04:09 PM 48.4°F9.1°C 35.8°F2.1°C 62% 4.0 mph SE6.4 kmh SE -- 30.40 in1029.5 mb 0.00 in0.0 mm 0.00 in0.0 mm 0.00 in0.0 mm
04:14 PM 48.2°F9.0°C 35.7°F2.1°C 62% 5.0 mph ENE8.0 kmh ENE -- 30.40 in1029.5 mb 0.00 in0.0 mm 0.00 in0.0 mm 0.00 in0.0 mm
04:18 PM 48.0°F8.9°C 35.9°F2.2°C 63% 1.0 mph SE1.6 kmh SE -- 30.41 in1029.8 mb 0.00 in0.0 mm 0.00 in0.0 mm 0.00 in0.0 mm
04:23 PM 47.7°F8.7°C 35.6°F2.0°C 63% 2.0 mph E3.2 kmh E -- 30.40 in1029.5 mb 0.00 in0.0 mm 0.00 in0.0 mm 0.00 in0.0 mm
04:29 PM 47.6°F8.7°C 35.6°F2.0°C 63% 3.0 mph SE4.8 kmh SE -- 30.41 in1029.8 mb 0.00 in0.0 mm 0.00 in0.0 mm 0.00 in0.0 mm
04:34 PM 47.4°F8.6°C 35.8°F2.1°C 64% 2.0 mph E3.2 kmh E -- 30.41 in1029.8 mb 0.00 in0.0 mm 0.00 in0.0 mm 0.00 in0.0 mm
04:38 PM 47.1°F8.4°C 35.4°F1.9°C 64% 2.0 mph SE3.2 kmh SE -- 30.41 in1029.8 mb 0.00 in0.0 mm 0.00 in0.0 mm 0.00 in0.0 mm
04:43 PM 46.8°F8.2°C 35.1°F1.7°C 64% 2.0 mph ENE3.2 kmh ENE -- 30.41 in1029.8 mb 0.00 in0.0 mm 0.00 in0.0 mm 0.00 in0.0 mm
04:48 PM 46.6°F8.1°C 34.9°F1.6°C 64% 2.0 mph E3.2 kmh E -- 30.41 in1029.8 mb 0.00 in0.0 mm 0.00 in0.0 mm 0.00 in0.0 mm
04:54 PM 46.3°F7.9°C 35.0°F1.7°C 65% 2.0 mph E3.2 kmh E -- 30.41 in1029.8 mb 0.00 in0.0 mm 0.00 in0.0 mm 0.00 in0.0 mm
04:58 PM 46.1°F7.8°C 34.4°F1.3°C 64% 3.0 mph SE4.8 kmh SE -- 30.41 in1029.8 mb 0.00 in0.0 mm 0.00 in0.0 mm 0.00 in0.0 mm
05:03 PM 46.0°F7.8°C 34.4°F1.3°C 64% 4.0 mph ENE6.4 kmh ENE -- 30.41 in1029.8 mb 0.00 in0.0 mm 0.00 in0.0 mm 0.00 in0.0 mm
05:09 PM 45.8°F7.7°C 34.2°F1.2°C 64% 3.0 mph E4.8 kmh E -- 30.41 in1029.8 mb 0.00 in0.0 mm 0.00 in0.0 mm 0.00 in0.0 mm
05:13 PM 45.6°F7.6°C 34.5°F1.4°C 65% 2.0 mph E3.2 kmh E -- 30.41 in1029.8 mb 0.00 in0.0 mm 0.00 in0.0 mm 0.00 in0.0 mm
05:18 PM 45.3°F7.4°C 34.1°F1.2°C 65% 2.0 mph ESE3.2 kmh ESE -- 30.42 in1030.1 mb 0.00 in0.0 mm 0.00 in0.0 mm 0.00 in0.0 mm
05:24 PM 45.1°F7.3°C 34.3°F1.3°C 66% 2.0 mph ESE3.2 kmh ESE -- 30.42 in1030.1 mb 0.00 in0.0 mm 0.00 in0.0 mm 0.00 in0.0 mm
05:28 PM 44.8°F7.1°C 34.0°F1.1°C 66% 4.0 mph E6.4 kmh E -- 30.42 in1030.1 mb 0.00 in0.0 mm 0.00 in0.0 mm 0.00 in0.0 mm
05:33 PM 44.6°F7.0°C 33.8°F1.0°C 66% 1.0 mph SE1.6 kmh SE -- 30.42 in1030.1 mb 0.00 in0.0 mm 0.00 in0.0 mm 0.00 in0.0 mm
05:38 PM 44.3°F6.8°C 33.5°F0.8°C 66% 3.0 mph E4.8 kmh E -- 30.42 in1030.1 mb 0.00 in0.0 mm 0.00 in0.0 mm 0.00 in0.0 mm
05:44 PM 44.1°F6.7°C 33.7°F0.9°C 67% Calm Calm -- 30.42 in1030.1 mb 0.00 in0.0 mm 0.00 in0.0 mm 0.00 in0.0 mm
05:49 PM 43.7°F6.5°C 33.3°F0.7°C 67% 1.0 mph SE1.6 kmh SE -- 30.42 in1030.1 mb 0.00 in0.0 mm 0.00 in0.0 mm 0.00 in0.0 mm
05:53 PM 43.4°F6.3°C 33.4°F0.8°C 68% 3.0 mph SE4.8 kmh SE -- 30.42 in1030.1 mb 0.00 in0.0 mm 0.00 in0.0 mm 0.00 in0.0 mm
05:58 PM 43.2°F6.2°C 33.2°F0.7°C 68% 1.0 mph SE1.6 kmh SE -- 30.42 in1030.1 mb 0.00 in0.0 mm 0.00 in0.0 mm 0.00 in0.0 mm
06:04 PM 42.9°F6.1°C 33.0°F0.6°C 68% 3.0 mph E4.8 kmh E -- 30.42 in1030.1 mb 0.00 in0.0 mm 0.00 in0.0 mm 0.00 in0.0 mm
06:09 PM 42.7°F5.9°C 32.7°F0.4°C 68% 2.0 mph SE3.2 kmh SE -- 30.42 in1030.1 mb 0.00 in0.0 mm 0.00 in0.0 mm 0.00 in0.0 mm
06:13 PM 42.5°F5.8°C 32.5°F0.3°C 68% 2.0 mph SE3.2 kmh SE -- 30.42 in1030.1 mb 0.00 in0.0 mm 0.00 in0.0 mm 0.00 in0.0 mm
06:18 PM 42.3°F5.7°C 32.7°F0.4°C 69% 3.0 mph ESE4.8 kmh ESE -- 30.43 in1030.5 mb 0.00 in0.0 mm 0.00 in0.0 mm 0.00 in0.0 mm
06:24 PM 42.1°F5.6°C 32.5°F0.3°C 69% 2.0 mph E3.2 kmh E -- 30.43 in1030.5 mb 0.00 in0.0 mm 0.00 in0.0 mm 0.00 in0.0 mm
06:29 PM 41.9°F5.5°C 32.4°F0.2°C 69% 1.0 mph ESE1.6 kmh ESE -- 30.43 in1030.5 mb 0.00 in0.0 mm 0.00 in0.0 mm 0.00 in0.0 mm
06:33 PM 41.9°F5.5°C 32.4°F0.2°C 69% 3.0 mph E4.8 kmh E -- 30.44 in1030.8 mb 0.00 in0.0 mm 0.00 in0.0 mm 0.00 in0.0 mm
06:38 PM 41.8°F5.4°C 31.8°F-0.1°C 68% 3.0 mph NE4.8 kmh NE -- 30.44 in1030.8 mb 0.00 in0.0 mm 0.00 in0.0 mm 0.00 in0.0 mm
06:43 PM 41.7°F5.4°C 31.8°F-0.1°C 68% 1.0 mph ESE1.6 kmh ESE -- 30.44 in1030.8 mb 0.00 in0.0 mm 0.00 in0.0 mm 0.00 in0.0 mm
06:48 PM 41.5°F5.3°C 31.6°F-0.2°C 68% 2.0 mph ESE3.2 kmh ESE -- 30.44 in1030.8 mb 0.00 in0.0 mm 0.00 in0.0 mm 0.00 in0.0 mm
06:53 PM 41.4°F5.2°C 31.8°F-0.1°C 69% 3.0 mph E4.8 kmh E -- 30.44 in1030.8 mb 0.00 in0.0 mm 0.00 in0.0 mm 0.00 in0.0 mm
06:58 PM 41.1°F5.1°C 31.7°F-0.2°C 69% Calm Calm -- 30.44 in1030.8 mb 0.00 in0.0 mm 0.00 in0.0 mm 0.00 in0.0 mm
07:04 PM 41.0°F5.0°C 31.5°F-0.3°C 69% 3.0 mph E4.8 kmh E -- 30.44 in1030.8 mb 0.00 in0.0 mm 0.00 in0.0 mm 0.00 in0.0 mm
07:08 PM 40.9°F4.9°C 31.3°F-0.4°C 69% 2.0 mph E3.2 kmh E -- 30.45 in1031.2 mb 0.00 in0.0 mm 0.00 in0.0 mm 0.00 in0.0 mm
07:13 PM 40.8°F4.9°C 31.3°F-0.4°C 69% 1.0 mph SE1.6 kmh SE -- 30.45 in1031.2 mb 0.00 in0.0 mm 0.00 in0.0 mm 0.00 in0.0 mm
07:19 PM 40.5°F4.7°C 31.0°F-0.6°C 69% 2.0 mph E3.2 kmh E -- 30.45 in1031.2 mb 0.00 in0.0 mm 0.00 in0.0 mm 0.00 in0.0 mm
07:23 PM 40.6°F4.8°C 31.2°F-0.4°C 69% 2.0 mph E3.2 kmh E -- 30.45 in1031.2 mb 0.00 in0.0 mm 0.00 in0.0 mm 0.00 in0.0 mm
07:28 PM 40.4°F4.7°C 31.0°F-0.6°C 69% 3.0 mph E4.8 kmh E -- 30.45 in1031.2 mb 0.00 in0.0 mm 0.00 in0.0 mm 0.00 in0.0 mm
07:33 PM 40.5°F4.7°C 31.0°F-0.6°C 69% 2.0 mph E3.2 kmh E -- 30.45 in1031.2 mb 0.00 in0.0 mm 0.00 in0.0 mm 0.00 in0.0 mm
07:39 PM 40.5°F4.7°C 30.6°F-0.8°C 68% 1.0 mph SE1.6 kmh SE -- 30.45 in1031.2 mb 0.00 in0.0 mm 0.00 in0.0 mm 0.00 in0.0 mm
07:44 PM 40.3°F4.6°C 30.4°F-0.9°C 68% 2.0 mph E3.2 kmh E -- 30.45 in1031.2 mb 0.00 in0.0 mm 0.00 in0.0 mm 0.00 in0.0 mm
07:48 PM 40.4°F4.7°C 30.6°F-0.8°C 68% 2.0 mph E3.2 kmh E -- 30.46 in1031.5 mb 0.00 in0.0 mm 0.00 in0.0 mm 0.00 in0.0 mm
07:53 PM 40.4°F4.7°C 30.6°F-0.8°C 68% 2.0 mph E3.2 kmh E -- 30.46 in1031.5 mb 0.00 in0.0 mm 0.00 in0.0 mm 0.00 in0.0 mm
07:59 PM 40.2°F4.6°C 30.4°F-0.9°C 68% 3.0 mph ESE4.8 kmh ESE -- 30.46 in1031.5 mb 0.00 in0.0 mm 0.00 in0.0 mm 0.00 in0.0 mm
08:04 PM 40.2°F4.6°C 30.4°F-0.9°C 68% 3.0 mph E4.8 kmh E -- 30.46 in1031.5 mb 0.00 in0.0 mm 0.00 in0.0 mm 0.00 in0.0 mm
08:08 PM 40.2°F4.6°C 30.4°F-0.9°C 68% 1.0 mph ESE1.6 kmh ESE -- 30.46 in1031.5 mb 0.00 in0.0 mm 0.00 in0.0 mm 0.00 in0.0 mm
08:13 PM 40.0°F4.4°C 30.1°F-1.1°C 68% 3.0 mph E4.8 kmh E -- 30.46 in1031.5 mb 0.00 in0.0 mm 0.00 in0.0 mm 0.00 in0.0 mm
08:19 PM 40.0°F4.4°C 29.7°F-1.3°C 67% 1.0 mph SE1.6 kmh SE -- 30.46 in1031.5 mb 0.00 in0.0 mm 0.00 in0.0 mm 0.00 in0.0 mm
08:23 PM 40.0°F4.4°C 29.4°F-1.4°C 66% 1.0 mph SE1.6 kmh SE -- 30.46 in1031.5 mb 0.00 in0.0 mm 0.00 in0.0 mm 0.00 in0.0 mm
08:24 PM 40.0°F4.4°C 29.4°F-1.4°C 66% 2.0 mph E3.2 kmh E -- 30.46 in1031.5 mb 0.00 in0.0 mm 0.00 in0.0 mm 0.00 in0.0 mm
08:28 PM 39.8°F4.3°C 29.6°F-1.3°C 67% 2.0 mph E3.2 kmh E -- 30.46 in1031.5 mb 0.00 in0.0 mm 0.00 in0.0 mm 0.00 in0.0 mm
08:33 PM 39.8°F4.3°C 29.6°F-1.3°C 67% 3.0 mph ESE4.8 kmh ESE -- 30.46 in1031.5 mb 0.00 in0.0 mm 0.00 in0.0 mm 0.00 in0.0 mm
08:38 PM 39.7°F4.3°C 29.6°F-1.3°C 67% 2.0 mph ESE3.2 kmh ESE -- 30.47 in1031.8 mb 0.00 in0.0 mm 0.00 in0.0 mm 0.00 in0.0 mm
08:43 PM 39.4°F4.1°C 29.2°F-1.6°C 67% 2.0 mph SE3.2 kmh SE -- 30.47 in1031.8 mb 0.00 in0.0 mm 0.00 in0.0 mm 0.00 in0.0 mm
08:48 PM 39.2°F4.0°C 29.0°F-1.7°C 67% 2.0 mph NE3.2 kmh NE -- 30.47 in1031.8 mb 0.00 in0.0 mm 0.00 in0.0 mm 0.00 in0.0 mm
08:53 PM 39.0°F3.9°C 28.9°F-1.7°C 67% 3.0 mph E4.8 kmh E -- 30.47 in1031.8 mb 0.00 in0.0 mm 0.00 in0.0 mm 0.00 in0.0 mm
08:59 PM 38.8°F3.8°C 28.7°F-1.8°C 67% 2.0 mph E3.2 kmh E -- 30.47 in1031.8 mb 0.00 in0.0 mm 0.00 in0.0 mm 0.00 in0.0 mm
09:03 PM 38.7°F3.7°C 28.5°F-1.9°C 67% 2.0 mph SE3.2 kmh SE -- 30.47 in1031.8 mb 0.00 in0.0 mm 0.00 in0.0 mm 0.00 in0.0 mm
09:08 PM 38.3°F3.5°C 28.5°F-1.9°C 68% 3.0 mph SE4.8 kmh SE -- 30.47 in1031.8 mb 0.00 in0.0 mm 0.00 in0.0 mm 0.00 in0.0 mm
09:14 PM 38.0°F3.3°C 28.2°F-2.1°C 68% Calm Calm -- 30.47 in1031.8 mb 0.00 in0.0 mm 0.00 in0.0 mm 0.00 in0.0 mm
09:18 PM 37.9°F3.3°C 28.6°F-1.9°C 69% Calm Calm -- 30.48 in1032.2 mb 0.00 in0.0 mm 0.00 in0.0 mm 0.00 in0.0 mm
09:23 PM 37.5°F3.1°C 28.2°F-2.1°C 69% 1.0 mph SE1.6 kmh SE -- 30.48 in1032.2 mb 0.00 in0.0 mm 0.00 in0.0 mm 0.00 in0.0 mm
09:28 PM 37.3°F2.9°C 28.2°F-2.1°C 70% 1.0 mph ESE1.6 kmh ESE -- 30.48 in1032.2 mb 0.00 in0.0 mm 0.00 in0.0 mm 0.00 in0.0 mm
09:34 PM 37.2°F2.9°C 28.2°F-2.1°C 70% Calm Calm -- 30.48 in1032.2 mb 0.00 in0.0 mm 0.00 in0.0 mm 0.00 in0.0 mm
09:39 PM 36.8°F2.7°C 27.9°F-2.3°C 70% Calm Calm -- 30.48 in1032.2 mb 0.00 in0.0 mm 0.00 in0.0 mm 0.00 in0.0 mm
09:43 PM 36.5°F2.5°C 27.5°F-2.5°C 70% 2.0 mph E3.2 kmh E -- 30.48 in1032.2 mb 0.00 in0.0 mm 0.00 in0.0 mm 0.00 in0.0 mm
09:48 PM 36.3°F2.4°C 27.7°F-2.4°C 71% Calm Calm -- 30.48 in1032.2 mb 0.00 in0.0 mm 0.00 in0.0 mm 0.00 in0.0 mm
09:54 PM 36.1°F2.3°C 27.9°F-2.3°C 72% Calm Calm -- 30.48 in1032.2 mb 0.00 in0.0 mm 0.00 in0.0 mm 0.00 in0.0 mm
09:59 PM 35.9°F2.2°C 27.7°F-2.4°C 72% Calm Calm -- 30.48 in1032.2 mb 0.00 in0.0 mm 0.00 in0.0 mm 0.00 in0.0 mm
10:03 PM 35.7°F2.1°C 27.5°F-2.5°C 72% Calm Calm -- 30.49 in1032.5 mb 0.00 in0.0 mm 0.00 in0.0 mm 0.00 in0.0 mm
10:08 PM 35.5°F1.9°C 27.9°F-2.3°C 74% Calm Calm -- 30.48 in1032.2 mb 0.00 in0.0 mm 0.00 in0.0 mm 0.00 in0.0 mm
10:14 PM 35.2°F1.8°C 28.0°F-2.2°C 75% Calm Calm -- 30.49 in1032.5 mb 0.00 in0.0 mm 0.00 in0.0 mm 0.00 in0.0 mm
10:18 PM 34.8°F1.6°C 27.7°F-2.4°C 75% Calm Calm -- 30.49 in1032.5 mb 0.00 in0.0 mm 0.00 in0.0 mm 0.00 in0.0 mm
10:23 PM 34.6°F1.4°C 27.6°F-2.4°C 76% Calm Calm -- 30.49 in1032.5 mb 0.00 in0.0 mm 0.00 in0.0 mm 0.00 in0.0 mm
10:28 PM 34.4°F1.3°C 27.5°F-2.5°C 76% 1.0 mph SE1.6 kmh SE -- 30.49 in1032.5 mb 0.00 in0.0 mm 0.00 in0.0 mm 0.00 in0.0 mm
10:33 PM 34.3°F1.3°C 27.8°F-2.3°C 77% Calm Calm -- 30.48 in1032.2 mb 0.00 in0.0 mm 0.00 in0.0 mm 0.00 in0.0 mm
10:38 PM 34.1°F1.2°C 27.6°F-2.4°C 77% Calm Calm -- 30.48 in1032.2 mb 0.00 in0.0 mm 0.00 in0.0 mm 0.00 in0.0 mm
10:48 PM 33.8°F1.0°C 27.3°F-2.6°C 77% 1.0 mph SE1.6 kmh SE -- 30.49 in1032.5 mb 0.00 in0.0 mm 0.00 in0.0 mm 0.00 in0.0 mm
10:54 PM 33.9°F1.1°C 27.8°F-2.3°C 78% Calm Calm -- 30.49 in1032.5 mb 0.00 in0.0 mm 0.00 in0.0 mm 0.00 in0.0 mm
10:58 PM 33.7°F0.9°C 27.4°F-2.6°C 78% Calm Calm -- 30.49 in1032.5 mb 0.00 in0.0 mm 0.00 in0.0 mm 0.00 in0.0 mm
11:03 PM 33.4°F0.8°C 26.9°F-2.8°C 77% Calm Calm -- 30.49 in1032.5 mb 0.00 in0.0 mm 0.00 in0.0 mm 0.00 in0.0 mm
11:09 PM 33.3°F0.7°C 27.1°F-2.7°C 78% Calm Calm -- 30.49 in1032.5 mb 0.00 in0.0 mm 0.00 in0.0 mm 0.00 in0.0 mm
11:13 PM 33.0°F0.6°C 26.9°F-2.8°C 78% Calm Calm -- 30.49 in1032.5 mb 0.00 in0.0 mm 0.00 in0.0 mm 0.00 in0.0 mm
11:18 PM 33.0°F0.6°C 27.2°F-2.7°C 79% Calm Calm -- 30.49 in1032.5 mb 0.00 in0.0 mm 0.00 in0.0 mm 0.00 in0.0 mm
11:23 PM 32.8°F0.4°C 27.2°F-2.7°C 80% Calm Calm -- 30.49 in1032.5 mb 0.00 in0.0 mm 0.00 in0.0 mm 0.00 in0.0 mm
11:29 PM 32.8°F0.4°C 27.2°F-2.7°C 80% Calm Calm -- 30.49 in1032.5 mb 0.00 in0.0 mm 0.00 in0.0 mm 0.00 in0.0 mm
11:34 PM 32.6°F0.3°C 27.0°F-2.8°C 80% Calm Calm -- 30.49 in1032.5 mb 0.00 in0.0 mm 0.00 in0.0 mm 0.00 in0.0 mm
11:38 PM 32.3°F0.2°C 26.8°F-2.9°C 80% Calm Calm -- 30.49 in1032.5 mb 0.00 in0.0 mm 0.00 in0.0 mm 0.00 in0.0 mm
11:43 PM 32.2°F0.1°C 26.9°F-2.8°C 81% Calm Calm -- 30.49 in1032.5 mb 0.00 in0.0 mm 0.00 in0.0 mm 0.00 in0.0 mm
11:49 PM 32.0°F0.0°C 27.1°F-2.7°C 82% 1.0 mph ESE1.6 kmh ESE -- 30.49 in1032.5 mb 0.00 in0.0 mm 0.00 in0.0 mm 0.00 in0.0 mm
11:54 PM 31.6°F-0.2°C 26.7°F-2.9°C 82% Calm Calm -- 30.49 in1032.5 mb 0.00 in0.0 mm 0.00 in0.0 mm 0.00 in0.0 mm
11:58 PM 31.5°F-0.3°C 26.8°F-2.9°C 83% Calm Calm -- 30.50 in1032.8 mb 0.00 in0.0 mm 0.00 in0.0 mm 0.00 in0.0 mm